createdAt,value
2023-04-23T00:00:57.763Z,6.82
2023-04-23T00:03:27.121Z,6.93
2023-04-23T00:05:58.598Z,7.60
2023-04-23T00:08:28.398Z,7.00
2023-04-23T00:10:58.338Z,7.30
2023-04-23T00:13:26.916Z,7.47
2023-04-23T00:15:55.012Z,7.85
2023-04-23T00:18:22.824Z,7.60
2023-04-23T00:20:50.746Z,7.18
2023-04-23T00:23:18.928Z,7.97
2023-04-23T00:25:46.705Z,7.85
2023-04-23T00:28:16.228Z,7.63
2023-04-23T00:30:44.082Z,7.35
2023-04-23T00:33:11.893Z,7.85
2023-04-23T00:35:39.728Z,7.40
2023-04-23T00:38:07.486Z,8.30
2023-04-23T00:40:35.607Z,7.95
2023-04-23T00:43:03.937Z,8.00
2023-04-23T00:45:33.192Z,7.45
2023-04-23T00:48:01.334Z,8.00
2023-04-23T00:50:29.106Z,8.45
2023-04-23T00:52:56.841Z,8.10
2023-04-23T00:55:24.849Z,7.85
2023-04-23T00:57:52.807Z,8.70
2023-04-23T01:00:21.290Z,8.48
2023-04-23T01:02:53.183Z,8.30
2023-04-23T01:05:21.819Z,8.13
2023-04-23T01:07:50.047Z,8.75
2023-04-23T01:10:18.454Z,9.73
2023-04-23T01:12:46.217Z,9.30
2023-04-23T01:15:13.977Z,8.90
2023-04-23T01:17:43.230Z,8.50
2023-04-23T01:20:12.857Z,9.10
2023-04-23T01:22:41.977Z,9.00
2023-04-23T01:25:10.673Z,9.00
2023-04-23T01:27:38.981Z,9.10
2023-04-23T01:30:08.101Z,8.80
2023-04-23T01:32:36.768Z,9.27
2023-04-23T01:35:05.543Z,10.02
2023-04-23T01:37:33.660Z,9.60
2023-04-23T01:40:02.837Z,9.85
2023-04-23T01:42:30.643Z,9.38
2023-04-23T01:44:58.464Z,9.77
2023-04-23T01:47:27.088Z,9.70
2023-04-23T01:49:54.839Z,9.50
2023-04-23T01:52:22.590Z,11.05
2023-04-23T01:54:50.497Z,10.40
2023-04-23T01:57:23.990Z,11.15
2023-04-23T01:59:51.748Z,11.35
2023-04-23T02:02:21.066Z,10.20
2023-04-23T02:04:49.654Z,10.68
2023-04-23T02:07:17.532Z,10.95
2023-04-23T02:09:45.898Z,11.18
2023-04-23T02:12:13.621Z,11.27
2023-04-23T02:14:43.037Z,10.48
2023-04-23T02:17:11.075Z,10.45
2023-04-23T02:19:38.809Z,11.13
2023-04-23T02:22:07.457Z,11.07
2023-04-23T02:24:35.229Z,11.90
2023-04-23T02:27:03.494Z,11.82
2023-04-23T02:29:31.395Z,11.38
2023-04-23T02:32:00.506Z,12.05
2023-04-23T02:34:28.312Z,12.52
2023-04-23T02:36:56.130Z,12.52
2023-04-23T02:39:23.847Z,14.07
2023-04-23T02:41:52.590Z,12.73
2023-04-23T02:44:20.331Z,13.68
2023-04-23T02:46:48.100Z,13.63
2023-04-23T02:49:17.319Z,14.98
2023-04-23T02:51:45.048Z,15.15
2023-04-23T02:54:12.820Z,14.70
2023-04-23T02:56:40.665Z,15.32
2023-04-23T02:59:09.943Z,14.75
2023-04-23T03:01:37.768Z,14.98
2023-04-23T03:04:05.836Z,16.08
2023-04-23T03:06:35.777Z,16.90
2023-04-23T03:09:03.722Z,17.92
2023-04-23T03:11:31.540Z,16.58
2023-04-23T03:13:59.304Z,17.77
2023-04-23T03:16:29.128Z,16.92
2023-04-23T03:18:57.253Z,16.20
2023-04-23T03:21:25.110Z,17.90
2023-04-23T03:23:54.180Z,18.05
2023-04-23T03:26:21.896Z,17.90
2023-04-23T03:28:49.636Z,17.30
2023-04-23T03:31:17.486Z,17.55
2023-04-23T03:33:45.264Z,16.88
2023-04-23T03:36:12.990Z,16.95
2023-04-23T03:38:40.702Z,16.77
2023-04-23T03:41:09.784Z,15.77
2023-04-23T03:43:37.535Z,15.85
2023-04-23T03:46:06.660Z,15.05
2023-04-23T03:48:34.606Z,13.75
2023-04-23T03:51:02.359Z,15.95
2023-04-23T03:53:30.066Z,14.98
2023-04-23T03:55:57.788Z,14.25
2023-04-23T03:58:26.864Z,13.48
2023-04-23T04:00:54.701Z,13.68
2023-04-23T04:03:22.641Z,12.70
2023-04-23T04:05:50.598Z,12.93
2023-04-23T04:08:18.333Z,14.45
2023-04-23T04:10:46.104Z,13.98
2023-04-23T04:13:16.010Z,13.95
2023-04-23T04:15:45.142Z,13.95
2023-04-23T04:18:12.912Z,14.18
2023-04-23T04:20:43.635Z,14.93
2023-04-23T04:23:11.419Z,14.25
2023-04-23T04:25:40.206Z,14.23
2023-04-23T04:28:09.363Z,13.18
2023-04-23T04:30:38.153Z,13.38
2023-04-23T04:33:07.306Z,13.40
2023-04-23T04:35:35.553Z,13.25
2023-04-23T04:38:03.276Z,13.25
2023-04-23T04:40:31.515Z,13.18
2023-04-23T04:43:00.151Z,12.85
2023-04-23T04:45:27.919Z,14.15
2023-04-23T04:47:55.911Z,14.50
2023-04-23T04:50:25.377Z,13.30
2023-04-23T04:52:53.118Z,13.25
2023-04-23T04:55:20.922Z,13.07
2023-04-23T04:57:48.641Z,11.88
2023-04-23T05:00:26.533Z,12.55
2023-04-23T05:02:54.789Z,12.48
2023-04-23T05:05:25.364Z,11.77
2023-04-23T05:07:54.608Z,12.80
2023-04-23T05:10:22.692Z,13.50
2023-04-23T05:12:51.889Z,12.25
2023-04-23T05:15:19.768Z,13.20
2023-04-23T05:17:47.580Z,13.60
2023-04-23T05:20:15.418Z,13.32
2023-04-23T05:22:44.466Z,14.07
2023-04-23T05:25:13.028Z,13.73
2023-04-23T05:27:41.855Z,13.85
2023-04-23T05:30:11.483Z,14.73
2023-04-23T05:32:39.785Z,13.90
2023-04-23T05:35:08.354Z,13.13
2023-04-23T05:37:36.311Z,12.68
2023-04-23T05:40:07.262Z,13.70
2023-04-23T05:42:35.890Z,13.07
2023-04-23T05:45:03.842Z,13.82
2023-04-23T05:47:31.733Z,12.88
2023-04-23T05:49:59.499Z,13.63
2023-04-23T05:52:27.234Z,13.27
2023-04-23T05:54:54.964Z,12.40
2023-04-23T05:57:24.037Z,13.02
2023-04-23T05:59:51.744Z,13.18
2023-04-23T06:02:20.485Z,12.70
2023-04-23T06:04:49.890Z,13.32
2023-04-23T06:07:17.992Z,11.38
2023-04-23T06:09:45.722Z,12.45
2023-04-23T06:12:13.457Z,12.00
2023-04-23T06:14:42.949Z,12.20
2023-04-23T06:17:11.194Z,12.18
2023-04-23T06:19:38.926Z,11.93
2023-04-23T06:22:07.236Z,12.45
2023-04-23T06:24:35.199Z,12.63
2023-04-23T06:27:03.001Z,11.27
2023-04-23T06:29:30.857Z,10.60
2023-04-23T06:32:02.933Z,10.20
2023-04-23T06:34:30.660Z,10.25
2023-04-23T06:36:58.999Z,10.75
2023-04-23T06:39:26.759Z,10.00
2023-04-23T06:41:54.573Z,9.70
2023-04-23T06:44:22.295Z,10.18
2023-04-23T06:46:50.153Z,10.07
2023-04-23T06:49:19.440Z,9.75
2023-04-23T06:51:48.346Z,9.32
2023-04-23T06:54:16.069Z,9.90
2023-04-23T06:56:43.801Z,11.30
2023-04-23T06:59:11.517Z,11.35
2023-04-23T07:01:39.257Z,11.52
2023-04-23T07:04:07.043Z,12.13
2023-04-23T07:06:36.744Z,12.82
2023-04-23T07:09:04.623Z,11.77
2023-04-23T07:11:34.806Z,10.60
2023-04-23T07:14:02.661Z,11.10
2023-04-23T07:16:33.781Z,10.50
2023-04-23T07:19:02.383Z,10.32
2023-04-23T07:21:30.578Z,11.00
2023-04-23T07:24:01.270Z,11.88
2023-04-23T07:26:29.228Z,11.65
2023-04-23T07:28:57.170Z,11.15
2023-04-23T07:31:24.965Z,11.23
2023-04-23T07:33:52.721Z,13.15
2023-04-23T07:36:20.443Z,11.32
2023-04-23T07:38:48.161Z,10.80
2023-04-23T07:41:17.326Z,10.68
2023-04-23T07:43:45.105Z,11.10
2023-04-23T07:46:12.968Z,10.50
2023-04-23T07:48:40.711Z,8.63
2023-04-23T07:51:09.622Z,9.27
2023-04-23T07:53:37.365Z,9.60
2023-04-23T07:56:05.181Z,9.95
2023-04-23T07:58:35.438Z,9.68
2023-04-23T08:01:03.605Z,9.82
2023-04-23T08:03:31.571Z,10.38
2023-04-23T08:05:59.478Z,9.35
2023-04-23T08:08:27.208Z,9.18
2023-04-23T08:10:54.965Z,8.43
2023-04-23T08:13:22.849Z,9.73
2023-04-23T08:15:52.102Z,8.65
2023-04-23T08:18:19.899Z,8.95
2023-04-23T08:20:47.667Z,8.30
2023-04-23T08:23:15.655Z,7.65
2023-04-23T08:25:43.370Z,7.95
2023-04-23T08:28:11.127Z,8.82
2023-04-23T08:30:39.495Z,8.40
2023-04-23T08:33:08.958Z,9.07
2023-04-23T08:35:36.751Z,8.30
2023-04-23T08:38:04.628Z,8.32
2023-04-23T08:40:34.133Z,7.80
2023-04-23T08:43:04.716Z,7.95
2023-04-23T08:45:32.783Z,6.70
2023-04-23T08:48:02.873Z,7.53
2023-04-23T08:50:32.712Z,7.55
2023-04-23T08:53:00.473Z,6.53
2023-04-23T08:55:28.329Z,7.53
2023-04-23T08:57:56.682Z,6.93
2023-04-23T09:00:26.049Z,6.70
2023-04-23T09:02:54.459Z,6.28
2023-04-23T09:05:22.643Z,5.90
2023-04-23T09:07:52.842Z,5.97
2023-04-23T09:10:20.641Z,5.93
2023-04-23T09:12:48.445Z,6.18
2023-04-23T09:15:16.180Z,5.60
2023-04-23T09:17:46.243Z,6.38
2023-04-23T09:20:15.692Z,6.70
2023-04-23T09:22:46.596Z,6.28
2023-04-23T09:25:17.639Z,6.18
2023-04-23T09:27:47.287Z,6.82
2023-04-23T09:30:15.743Z,6.72
2023-04-23T09:32:46.001Z,7.45
2023-04-23T09:35:15.582Z,6.68
2023-04-23T09:37:44.990Z,7.22
2023-04-23T09:40:16.816Z,7.32
2023-04-23T09:42:49.609Z,6.95
2023-04-23T09:45:17.865Z,6.68
2023-04-23T09:47:51.597Z,5.70
2023-04-23T09:50:19.845Z,4.18
2023-04-23T09:52:55.864Z,4.40
2023-04-23T09:55:31.049Z,4.10
2023-04-23T09:57:59.904Z,4.53
2023-04-23T10:00:30.652Z,4.25
2023-04-23T10:03:01.359Z,3.30
2023-04-23T10:05:34.187Z,3.58
2023-04-23T10:08:10.421Z,3.10
2023-04-23T10:10:56.828Z,2.95
2023-04-23T10:13:28.408Z,2.95
2023-04-23T10:16:07.078Z,2.92
2023-04-23T10:18:42.432Z,3.20
2023-04-23T10:21:10.935Z,2.50
2023-04-23T10:23:41.524Z,2.85
2023-04-23T10:26:12.313Z,3.13
2023-04-23T10:28:41.348Z,3.22
2023-04-23T10:31:10.877Z,3.35
2023-04-23T10:33:45.984Z,3.97
2023-04-23T10:36:25.837Z,4.50
2023-04-23T10:38:58.427Z,4.22
2023-04-23T10:41:36.133Z,4.80
2023-04-23T10:44:04.683Z,4.38
2023-04-23T10:46:34.459Z,4.68
2023-04-23T10:49:08.557Z,4.20
2023-04-23T10:54:09.913Z,4.45
2023-04-23T10:56:40.770Z,4.18
2023-04-23T10:59:09.435Z,4.95
2023-04-23T11:01:37.278Z,5.15
2023-04-23T11:04:25.499Z,5.22
2023-04-23T11:06:56.075Z,6.20
2023-04-23T11:09:31.535Z,6.65
2023-04-23T11:12:01.541Z,6.28
2023-04-23T11:14:43.409Z,6.97
2023-04-23T11:17:13.121Z,6.50
2023-04-23T11:19:42.607Z,6.55
2023-04-23T11:22:16.759Z,6.20
2023-04-23T11:24:48.798Z,6.57
2023-04-23T11:27:20.442Z,6.00
2023-04-23T11:29:48.439Z,6.15
2023-04-23T11:32:18.170Z,6.43
2023-04-23T11:34:47.426Z,5.40
2023-04-23T11:37:16.347Z,5.07
2023-04-23T11:39:51.568Z,5.20
2023-04-23T11:42:21.133Z,5.35
2023-04-23T11:44:49.161Z,5.40
2023-04-23T11:47:18.692Z,5.82
2023-04-23T11:49:47.040Z,5.47
2023-04-23T11:52:15.684Z,5.22
2023-04-23T11:54:43.654Z,6.05
2023-04-23T11:57:11.914Z,6.10
2023-04-23T11:59:41.259Z,6.75
2023-04-23T12:02:09.343Z,7.80
2023-04-23T12:04:40.326Z,7.03
2023-04-23T12:07:15.968Z,6.13
2023-04-23T12:09:51.070Z,5.32
2023-04-23T12:12:18.793Z,4.75
2023-04-23T12:14:47.898Z,4.47
2023-04-23T12:17:15.948Z,3.70
2023-04-23T12:19:45.625Z,4.00
2023-04-23T12:22:13.362Z,3.50
2023-04-23T12:24:48.813Z,3.83
2023-04-23T12:27:20.177Z,3.60
2023-04-23T12:29:50.870Z,3.45
2023-04-23T12:32:19.204Z,3.30
2023-04-23T12:34:53.925Z,3.10
2023-04-23T12:37:26.397Z,3.00
2023-04-23T12:39:56.708Z,2.25
2023-04-23T12:42:25.187Z,2.25
2023-04-23T12:44:55.832Z,2.15
2023-04-23T12:47:24.032Z,1.90
2023-04-23T12:49:53.778Z,2.40
2023-04-23T12:52:22.331Z,2.17
2023-04-23T12:54:52.228Z,2.25
2023-04-23T12:57:23.278Z,2.10
2023-04-23T12:59:51.614Z,1.73
2023-04-23T13:02:20.821Z,1.90
2023-04-23T13:04:48.886Z,1.65
2023-04-23T13:07:17.016Z,1.80
2023-04-23T13:09:45.093Z,2.00
2023-04-23T13:12:13.051Z,2.03
2023-04-23T13:14:40.756Z,1.98
2023-04-23T13:17:08.707Z,1.80
2023-04-23T13:19:39.786Z,2.20
2023-04-23T13:22:07.796Z,2.08
2023-04-23T13:24:35.876Z,2.28
2023-04-23T13:27:03.817Z,2.20
2023-04-23T13:29:31.658Z,2.40
2023-04-23T13:31:59.614Z,2.20
2023-04-23T13:34:27.636Z,2.50
2023-04-23T13:36:57.062Z,2.92
2023-04-23T13:39:25.078Z,3.00
2023-04-23T13:42:06.216Z,2.97
2023-04-23T13:44:36.672Z,3.15
2023-04-23T13:47:04.615Z,3.20
2023-04-23T13:49:32.412Z,2.90
2023-04-23T13:52:06.387Z,2.80
2023-04-23T13:54:35.512Z,2.95
2023-04-23T13:57:03.597Z,3.20
2023-04-23T13:59:31.382Z,3.13
2023-04-23T14:01:59.157Z,3.00
2023-04-23T14:04:27.178Z,2.97
2023-04-23T14:06:55.007Z,3.00
2023-04-23T14:09:24.235Z,3.30
2023-04-23T14:11:53.228Z,3.42
2023-04-23T14:14:21.131Z,3.15
2023-04-23T14:16:48.953Z,3.20
2023-04-23T14:19:17.251Z,3.38
2023-04-23T14:21:46.015Z,3.80
2023-04-23T14:24:19.157Z,3.28
2023-04-23T14:26:50.009Z,3.13
2023-04-23T14:29:25.269Z,3.50
2023-04-23T14:31:53.173Z,3.80
2023-04-23T14:34:21.212Z,3.20
2023-04-23T14:36:49.543Z,3.88
2023-04-23T14:39:17.643Z,3.55
2023-04-23T14:41:45.388Z,3.78
2023-04-23T14:44:14.492Z,4.05
2023-04-23T14:46:42.234Z,3.72
2023-04-23T14:49:10.157Z,3.42
2023-04-23T14:51:38.391Z,3.50
2023-04-23T14:54:06.560Z,3.75
2023-04-23T14:56:34.344Z,3.50
2023-04-23T14:59:02.780Z,3.00
2023-04-23T15:01:32.150Z,2.97
2023-04-23T15:04:00.201Z,3.40
2023-04-23T15:06:28.277Z,3.05
2023-04-23T15:08:56.027Z,3.42
2023-04-23T15:11:23.827Z,3.28
2023-04-23T15:13:57.824Z,3.00
2023-04-23T15:16:46.880Z,3.03
2023-04-23T15:19:18.859Z,3.00
2023-04-23T15:21:47.322Z,3.28
2023-04-23T15:24:15.607Z,3.25
2023-04-23T15:26:43.823Z,2.90
2023-04-23T15:29:13.492Z,3.88
2023-04-23T15:31:42.313Z,2.90
2023-04-23T15:34:11.591Z,3.65
2023-04-23T15:36:40.744Z,2.90
2023-04-23T15:39:10.007Z,2.92
2023-04-23T15:41:40.799Z,3.10
2023-04-23T15:44:11.462Z,2.42
2023-04-23T15:46:39.206Z,2.80
2023-04-23T15:49:07.036Z,2.80
2023-04-23T15:51:35.239Z,2.67
2023-04-23T15:54:08.156Z,2.97
2023-04-23T15:56:36.590Z,2.80
2023-04-23T15:59:04.442Z,2.80
2023-04-23T16:01:32.349Z,2.65
2023-04-23T16:04:09.575Z,2.95
2023-04-23T16:06:38.389Z,2.58
2023-04-23T16:09:08.200Z,2.40
2023-04-23T16:11:36.540Z,2.40
2023-04-23T16:14:05.305Z,2.20
2023-04-23T16:16:33.258Z,2.78
2023-04-23T16:19:01.989Z,2.30
2023-04-23T16:21:29.821Z,2.30
2023-04-23T16:23:57.877Z,2.50
2023-04-23T16:26:28.408Z,2.90
2023-04-23T16:29:16.848Z,2.50
2023-04-23T16:31:44.058Z,2.40
2023-04-23T16:34:11.856Z,2.40
2023-04-23T16:36:39.801Z,2.50
2023-04-23T16:39:07.572Z,2.53
2023-04-23T16:41:36.804Z,2.00
2023-04-23T16:44:04.667Z,2.13
2023-04-23T16:46:32.696Z,2.60
2023-04-23T16:49:00.641Z,2.72
2023-04-23T16:51:29.694Z,2.28
2023-04-23T16:53:58.084Z,3.72
2023-04-23T16:56:26.118Z,2.40
2023-04-23T16:58:55.222Z,2.30
2023-04-23T17:01:23.341Z,2.38
2023-04-23T17:03:51.295Z,2.75
2023-04-23T17:06:28.963Z,2.65
2023-04-23T17:08:58.230Z,2.53
2023-04-23T17:11:26.849Z,2.40
2023-04-23T17:13:56.652Z,2.70
2023-04-23T17:16:26.668Z,2.60
2023-04-23T17:18:54.953Z,2.65
2023-04-23T17:21:22.868Z,2.70
2023-04-23T17:23:50.626Z,2.97
2023-04-23T17:26:19.230Z,2.85
2023-04-23T17:28:47.032Z,3.00
2023-04-23T17:31:16.233Z,3.63
2023-04-23T17:33:45.464Z,3.60
2023-04-23T17:36:13.530Z,4.10
2023-04-23T17:38:41.504Z,5.50
2023-04-23T17:41:09.317Z,5.57
2023-04-23T17:43:37.150Z,5.25
2023-04-23T17:46:05.012Z,4.15
2023-04-23T17:48:34.368Z,3.55
2023-04-23T17:51:02.220Z,3.53
2023-04-23T17:53:30.052Z,3.58
2023-04-23T17:56:02.839Z,3.92
2023-04-23T17:58:31.251Z,4.25
2023-04-23T18:00:59.228Z,4.07
2023-04-23T18:03:27.948Z,3.65
2023-04-23T18:05:57.423Z,4.10
2023-04-23T18:08:25.286Z,4.55
2023-04-23T18:10:53.238Z,4.18
2023-04-23T18:13:21.150Z,4.40
2023-04-23T18:15:49.964Z,4.72
2023-04-23T18:18:18.643Z,4.47
2023-04-23T18:20:47.510Z,4.10
2023-04-23T18:23:16.756Z,4.40
2023-04-23T18:25:44.746Z,5.10
2023-04-23T18:28:12.500Z,5.10
2023-04-23T18:30:40.316Z,5.18
2023-04-23T18:33:13.667Z,6.22
2023-04-23T18:35:43.907Z,6.75
2023-04-23T18:38:24.251Z,7.65
2023-04-23T18:40:53.369Z,6.43
2023-04-23T18:43:21.191Z,6.63
2023-04-23T18:45:48.968Z,6.70
2023-04-23T18:48:43.278Z,6.47
2023-04-23T18:51:25.417Z,6.70
2023-04-23T18:53:53.535Z,8.00
2023-04-23T18:56:22.598Z,7.95
2023-04-23T18:58:50.373Z,6.97
2023-04-23T19:01:18.812Z,10.50
2023-04-23T19:03:46.691Z,8.90
2023-04-23T19:06:15.848Z,8.13
2023-04-23T19:08:43.737Z,9.32
2023-04-23T19:11:11.494Z,7.95
2023-04-23T19:13:40.614Z,8.02
2023-04-23T19:16:09.582Z,8.25
2023-04-23T19:18:37.529Z,7.68
2023-04-23T19:21:05.525Z,8.93
2023-04-23T19:23:33.633Z,8.43
2023-04-23T19:26:01.773Z,7.35
2023-04-23T19:28:29.788Z,8.18
2023-04-23T19:30:59.187Z,7.35
2023-04-23T19:33:27.169Z,7.63
2023-04-23T19:35:55.011Z,6.65
2023-04-23T19:38:22.932Z,7.60
2023-04-23T19:40:51.103Z,7.50
2023-04-23T19:43:19.890Z,7.57
2023-04-23T19:45:47.593Z,7.20
2023-04-23T19:48:16.963Z,6.95
2023-04-23T19:50:44.789Z,6.95
2023-04-23T19:53:12.628Z,6.85
2023-04-23T19:55:40.670Z,6.32
2023-04-23T19:58:08.441Z,6.38
2023-04-23T20:00:41.428Z,6.32
2023-04-23T20:03:09.792Z,6.32
2023-04-23T20:05:39.095Z,6.10
2023-04-23T20:08:14.495Z,6.88
2023-04-23T20:10:42.401Z,5.45
2023-04-23T20:13:10.226Z,5.40
2023-04-23T20:15:38.098Z,5.57
2023-04-23T20:18:06.888Z,6.10
2023-04-23T20:20:35.720Z,5.28
2023-04-23T20:23:04.838Z,5.53
2023-04-23T20:25:32.933Z,5.67
2023-04-23T20:28:00.754Z,5.35
2023-04-23T20:30:28.469Z,5.50
2023-04-23T20:32:57.702Z,6.40
2023-04-23T20:35:25.875Z,7.10
2023-04-23T20:37:54.660Z,7.97
2023-04-23T20:40:25.139Z,10.98
2023-04-23T20:42:54.652Z,13.40
2023-04-23T20:45:22.501Z,14.07
2023-04-23T20:47:51.507Z,14.00
2023-04-23T20:50:19.372Z,13.27
2023-04-23T20:52:47.278Z,11.70
2023-04-23T20:55:15.350Z,12.70
2023-04-23T20:57:44.761Z,10.57
2023-04-23T21:00:14.272Z,9.20
2023-04-23T21:02:42.505Z,8.73
2023-04-23T21:05:12.844Z,8.73
2023-04-23T21:07:40.609Z,7.93
2023-04-23T21:10:08.888Z,8.67
2023-04-23T21:12:37.117Z,8.80
2023-04-23T21:15:07.400Z,8.87
2023-04-23T21:17:35.307Z,7.70
2023-04-23T21:20:04.834Z,8.57
2023-04-23T21:22:32.586Z,8.07
2023-04-23T21:25:00.330Z,9.10
2023-04-23T21:27:28.102Z,7.37
2023-04-23T21:29:55.868Z,8.03
2023-04-23T21:32:24.987Z,8.10
2023-04-23T21:34:52.752Z,8.00
2023-04-23T21:37:20.464Z,8.97
2023-04-23T21:39:48.240Z,8.10
2023-04-23T21:42:16.052Z,7.73
2023-04-23T21:44:43.862Z,8.40
2023-04-23T21:47:11.648Z,7.60
2023-04-23T21:49:41.230Z,6.80
2023-04-23T21:52:09.665Z,7.37
2023-04-23T21:54:37.404Z,6.83
2023-04-23T21:57:05.570Z,7.57
2023-04-23T21:59:33.322Z,6.77
2023-04-23T22:02:01.041Z,6.50
2023-04-23T22:04:29.309Z,6.77
2023-04-23T22:07:02.320Z,7.20
2023-04-23T22:09:30.304Z,6.00
2023-04-23T22:12:02.149Z,6.40
2023-04-23T22:14:30.387Z,6.00
2023-04-23T22:16:58.651Z,6.07
2023-04-23T22:19:26.817Z,6.23
2023-04-23T22:21:54.890Z,6.37
2023-04-23T22:24:24.212Z,6.47
2023-04-23T22:26:51.968Z,5.73
2023-04-23T22:29:19.736Z,6.17
2023-04-23T22:31:47.487Z,6.33
2023-04-23T22:34:15.417Z,6.80
2023-04-23T22:36:43.357Z,6.50
2023-04-23T22:39:12.618Z,6.60
2023-04-23T22:41:41.675Z,6.53
2023-04-23T22:44:10.058Z,6.57
2023-04-23T22:46:38.154Z,6.47
2023-04-23T22:49:08.054Z,7.33
2023-04-23T22:51:38.690Z,7.33
2023-04-23T22:54:06.614Z,6.20
2023-04-23T22:56:34.534Z,6.53
2023-04-23T22:59:04.978Z,6.23
2023-04-23T23:01:32.840Z,6.13
2023-04-23T23:04:00.680Z,5.73
2023-04-23T23:06:28.402Z,5.93
2023-04-23T23:08:56.479Z,6.20
2023-04-23T23:11:24.314Z,6.40
2023-04-23T23:13:52.780Z,6.23
2023-04-23T23:16:21.960Z,6.43
2023-04-23T23:18:49.818Z,6.97
2023-04-23T23:21:18.226Z,6.83
2023-04-23T23:23:46.255Z,5.80
2023-04-23T23:26:14.007Z,6.03
2023-04-23T23:28:41.796Z,6.30
2023-04-23T23:31:10.227Z,5.97
2023-04-23T23:33:40.035Z,6.40
2023-04-23T23:36:08.771Z,6.67
2023-04-23T23:38:36.645Z,6.40
2023-04-23T23:41:04.397Z,6.80
2023-04-23T23:43:32.169Z,6.57
2023-04-23T23:45:59.899Z,6.00
2023-04-23T23:48:27.914Z,5.90
2023-04-23T23:50:56.990Z,5.90
2023-04-23T23:53:24.731Z,5.73
2023-04-23T23:55:52.454Z,5.90
2023-04-23T23:58:21.009Z,5.80
